createdAt,value
2017-06-24T00:00:42.147Z,57.36
2017-06-24T00:01:38.401Z,57.34
2017-06-24T00:02:34.626Z,57.53
2017-06-24T00:03:30.859Z,57.55
2017-06-24T00:04:27.093Z,57.61
2017-06-24T00:05:23.322Z,57.64
2017-06-24T00:06:19.558Z,57.65
2017-06-24T00:07:15.807Z,57.86
2017-06-24T00:08:12.050Z,57.89
2017-06-24T00:09:08.278Z,58.00
2017-06-24T00:10:04.510Z,58.15
2017-06-24T00:11:00.747Z,58.28
2017-06-24T00:11:56.986Z,58.30
2017-06-24T00:12:53.242Z,58.38
2017-06-24T00:13:49.481Z,58.49
2017-06-24T00:14:45.702Z,58.62
2017-06-24T00:15:41.939Z,58.65
2017-06-24T00:16:38.175Z,58.67
2017-06-24T00:17:34.412Z,58.70
2017-06-24T00:18:30.654Z,58.83
2017-06-24T00:19:26.890Z,58.83
2017-06-24T00:20:23.130Z,58.88
2017-06-24T00:21:19.369Z,58.99
2017-06-24T00:22:15.598Z,59.01
2017-06-24T00:23:11.830Z,59.10
2017-06-24T00:24:08.077Z,59.21
2017-06-24T00:25:04.302Z,59.29
2017-06-24T00:26:00.536Z,59.37
2017-06-24T00:26:56.767Z,59.43
2017-06-24T00:27:52.998Z,59.60
2017-06-24T00:28:49.250Z,59.69
2017-06-24T00:29:45.490Z,59.72
2017-06-24T00:30:41.714Z,59.70
2017-06-24T00:31:37.955Z,59.75
2017-06-24T00:32:34.195Z,59.81
2017-06-24T00:33:30.442Z,59.99
2017-06-24T00:34:26.710Z,60.05
2017-06-24T00:35:22.941Z,60.08
2017-06-24T00:36:19.194Z,60.19
2017-06-24T00:37:15.430Z,60.18
2017-06-24T00:38:11.654Z,60.30
2017-06-24T00:39:07.881Z,60.29
2017-06-24T00:40:04.127Z,60.27
2017-06-24T00:41:00.361Z,60.24
2017-06-24T00:41:56.590Z,60.43
2017-06-24T00:42:52.823Z,60.43
2017-06-24T00:43:49.050Z,60.58
2017-06-24T00:44:45.286Z,60.60
2017-06-24T00:45:41.538Z,60.60
2017-06-24T00:46:37.783Z,60.68
2017-06-24T00:47:34.014Z,60.70
2017-06-24T00:48:30.246Z,60.70
2017-06-24T00:49:26.474Z,60.80
2017-06-24T00:50:22.697Z,60.79
2017-06-24T00:51:18.946Z,60.83
2017-06-24T00:52:15.246Z,60.87
2017-06-24T00:53:11.482Z,61.00
2017-06-24T00:54:07.709Z,61.00
2017-06-24T00:55:03.941Z,61.06
2017-06-24T00:56:00.186Z,61.09
2017-06-24T00:56:56.419Z,61.08
2017-06-24T00:57:52.654Z,61.17
2017-06-24T00:58:48.883Z,61.27
2017-06-24T00:59:45.118Z,61.24
2017-06-24T01:00:41.366Z,61.39
2017-06-24T01:01:37.602Z,61.42
2017-06-24T01:02:33.826Z,61.51
2017-06-24T01:03:30.050Z,61.54
2017-06-24T01:04:28.537Z,61.60
2017-06-24T01:05:24.838Z,61.65
2017-06-24T01:06:21.130Z,61.75
2017-06-24T01:07:17.375Z,61.87
2017-06-24T01:08:13.630Z,61.89
2017-06-24T01:09:09.887Z,61.90
2017-06-24T01:10:06.134Z,61.97
2017-06-24T01:11:02.380Z,62.14
2017-06-24T01:11:58.667Z,62.23
2017-06-24T01:12:54.922Z,62.26
2017-06-24T01:13:51.174Z,62.36
2017-06-24T01:14:47.418Z,62.29
2017-06-24T01:15:43.662Z,62.33
2017-06-24T01:16:39.906Z,62.35
2017-06-24T01:17:36.158Z,62.41
2017-06-24T01:18:32.402Z,62.46
2017-06-24T01:19:28.646Z,62.46
2017-06-24T01:20:24.892Z,62.53
2017-06-24T01:21:21.134Z,62.44
2017-06-24T01:22:17.410Z,62.46
2017-06-24T01:23:13.662Z,62.50
2017-06-24T01:24:09.902Z,62.54
2017-06-24T01:25:06.162Z,62.56
2017-06-24T01:26:02.406Z,62.56
2017-06-24T01:26:58.662Z,62.64
2017-06-24T01:27:54.934Z,62.54
2017-06-24T01:28:51.198Z,62.71
2017-06-24T01:29:47.442Z,62.72
2017-06-24T01:30:43.698Z,62.78
2017-06-24T01:31:39.954Z,62.81
2017-06-24T01:32:36.225Z,62.86
2017-06-24T01:33:32.486Z,62.90
2017-06-24T01:34:28.734Z,62.96
2017-06-24T01:35:25.063Z,63.07
2017-06-24T01:36:21.312Z,63.14
2017-06-24T01:37:17.566Z,63.16
2017-06-24T01:38:13.850Z,63.20
2017-06-24T01:39:10.098Z,63.16
2017-06-24T01:40:06.415Z,63.23
2017-06-24T01:41:02.671Z,63.16
2017-06-24T01:41:58.939Z,63.26
2017-06-24T01:42:55.201Z,63.29
2017-06-24T01:43:51.462Z,63.33
2017-06-24T01:44:47.706Z,63.34
2017-06-24T01:45:43.958Z,63.46
2017-06-24T01:46:40.202Z,63.49
2017-06-24T01:47:36.450Z,63.53
2017-06-24T01:48:32.694Z,63.54
2017-06-24T01:49:28.964Z,63.64
2017-06-24T01:50:25.218Z,63.66
2017-06-24T01:51:21.467Z,63.68
2017-06-24T01:52:17.714Z,63.74
2017-06-24T01:53:13.965Z,63.71
2017-06-24T01:54:10.210Z,63.76
2017-06-24T01:55:06.473Z,63.87
2017-06-24T01:56:02.725Z,63.94
2017-06-24T01:56:58.966Z,64.12
2017-06-24T01:57:55.206Z,64.24
2017-06-24T01:58:51.457Z,64.17
2017-06-24T01:59:47.715Z,64.24
2017-06-24T02:00:43.967Z,64.35
2017-06-24T02:01:40.214Z,64.35
2017-06-24T02:02:36.489Z,64.43
2017-06-24T02:03:32.735Z,64.45
2017-06-24T02:04:28.986Z,64.47
2017-06-24T02:05:25.303Z,64.46
2017-06-24T02:06:21.554Z,64.58
2017-06-24T02:07:17.803Z,64.70
2017-06-24T02:08:14.042Z,64.70
2017-06-24T02:09:10.281Z,64.76
2017-06-24T02:10:06.526Z,64.67
2017-06-24T02:11:02.782Z,64.71
2017-06-24T02:11:59.034Z,64.74
2017-06-24T02:12:55.278Z,64.79
2017-06-24T02:13:51.522Z,64.79
2017-06-24T02:14:47.770Z,64.93
2017-06-24T02:15:44.030Z,65.04
2017-06-24T02:16:40.274Z,65.06
2017-06-24T02:17:36.526Z,65.14
2017-06-24T02:18:32.779Z,65.13
2017-06-24T02:19:29.031Z,65.15
2017-06-24T02:20:25.282Z,65.27
2017-06-24T02:21:21.547Z,65.28
2017-06-24T02:22:17.794Z,65.31
2017-06-24T02:23:14.029Z,65.34
2017-06-24T02:24:10.285Z,65.41
2017-06-24T02:25:06.533Z,65.49
2017-06-24T02:26:02.779Z,65.50
2017-06-24T02:26:59.037Z,65.58
2017-06-24T02:27:55.290Z,65.66
2017-06-24T02:28:51.542Z,65.69
2017-06-24T02:29:47.782Z,65.78
2017-06-24T02:30:44.034Z,65.80
2017-06-24T02:31:40.290Z,65.84
2017-06-24T02:32:36.538Z,65.94
2017-06-24T02:33:32.789Z,66.00
2017-06-24T02:34:29.035Z,66.08
2017-06-24T02:35:25.293Z,66.16
2017-06-24T02:36:21.533Z,66.19
2017-06-24T02:37:17.815Z,66.23
2017-06-24T02:38:14.078Z,66.27
2017-06-24T02:39:10.322Z,66.30
2017-06-24T02:40:06.567Z,66.37
2017-06-24T02:41:02.810Z,66.44
2017-06-24T02:41:59.066Z,66.39
2017-06-24T02:42:55.347Z,66.46
2017-06-24T02:43:51.604Z,66.58
2017-06-24T02:44:47.890Z,66.54
2017-06-24T02:45:44.162Z,66.64
2017-06-24T02:46:40.399Z,66.60
2017-06-24T02:47:36.653Z,66.72
2017-06-24T02:48:32.918Z,66.61
2017-06-24T02:49:29.162Z,66.60
2017-06-24T02:50:25.401Z,66.71
2017-06-24T02:51:21.654Z,66.74
2017-06-24T02:52:17.911Z,66.84
2017-06-24T02:53:14.154Z,66.87
2017-06-24T02:54:10.446Z,66.91
2017-06-24T02:55:06.702Z,66.99
2017-06-24T02:56:02.955Z,66.96
2017-06-24T02:56:59.203Z,67.04
2017-06-24T02:57:55.462Z,67.12
2017-06-24T02:58:51.718Z,67.13
2017-06-24T02:59:47.985Z,67.23
2017-06-24T03:00:44.226Z,67.35
2017-06-24T03:01:40.462Z,67.29
2017-06-24T03:02:36.717Z,67.30
2017-06-24T03:03:32.973Z,67.35
2017-06-24T03:04:29.254Z,67.44
2017-06-24T03:05:25.498Z,67.45
2017-06-24T03:06:21.738Z,67.43
2017-06-24T03:07:17.977Z,67.58
2017-06-24T03:08:14.226Z,67.58
2017-06-24T03:09:10.470Z,67.63
2017-06-24T03:10:06.738Z,67.58
2017-06-24T03:11:02.979Z,67.63
2017-06-24T03:11:59.218Z,67.58
2017-06-24T03:12:55.457Z,67.68
2017-06-24T03:13:51.708Z,67.59
2017-06-24T03:14:48.386Z,67.75
2017-06-24T03:15:44.642Z,67.69
2017-06-24T03:16:40.886Z,67.71
2017-06-24T03:17:37.133Z,67.84
2017-06-24T03:18:33.378Z,67.86
2017-06-24T03:19:29.616Z,67.91
2017-06-24T03:20:25.858Z,67.97
2017-06-24T03:21:22.114Z,68.02
2017-06-24T03:22:18.373Z,68.04
2017-06-24T03:23:14.614Z,68.13
2017-06-24T03:24:10.846Z,68.19
2017-06-24T03:25:07.078Z,68.23
2017-06-24T03:26:03.313Z,68.22
2017-06-24T03:26:59.581Z,68.33
2017-06-24T03:27:55.826Z,68.36
2017-06-24T03:28:52.067Z,68.43
2017-06-24T03:29:48.382Z,68.43
2017-06-24T03:30:44.642Z,68.46
2017-06-24T03:31:40.897Z,68.56
2017-06-24T03:32:37.134Z,68.60
2017-06-24T03:33:33.373Z,68.64
2017-06-24T03:34:29.635Z,68.70
2017-06-24T03:35:25.865Z,68.77
2017-06-24T03:36:22.106Z,68.80
2017-06-24T03:37:18.378Z,68.78
2017-06-24T03:38:14.626Z,68.86
2017-06-24T03:39:10.862Z,68.86
2017-06-24T03:40:07.105Z,69.01
2017-06-24T03:41:03.346Z,68.95
2017-06-24T03:41:59.585Z,68.96
2017-06-24T03:42:55.835Z,69.01
2017-06-24T03:43:52.086Z,69.03
2017-06-24T03:44:48.319Z,69.16
2017-06-24T03:45:44.566Z,69.19
2017-06-24T03:46:40.809Z,69.06
2017-06-24T03:47:37.058Z,69.15
2017-06-24T03:48:33.316Z,69.27
2017-06-24T03:49:29.562Z,69.31
2017-06-24T03:50:25.835Z,69.37
2017-06-24T03:51:22.102Z,69.30
2017-06-24T03:52:23.322Z,69.33
2017-06-24T03:53:19.577Z,69.40
2017-06-24T03:54:15.822Z,69.51
2017-06-24T03:55:12.070Z,69.54
2017-06-24T03:56:08.321Z,69.60
2017-06-24T03:57:04.569Z,69.60
2017-06-24T03:58:00.969Z,69.67
2017-06-24T03:58:57.226Z,69.61
2017-06-24T03:59:53.470Z,69.71
2017-06-24T04:00:49.731Z,69.82
2017-06-24T04:01:47.280Z,69.72
2017-06-24T04:02:43.518Z,69.83
2017-06-24T04:03:39.769Z,69.79
2017-06-24T04:04:36.055Z,69.95
2017-06-24T04:05:32.308Z,69.89
2017-06-24T04:06:28.554Z,70.05
2017-06-24T04:07:24.790Z,70.09
2017-06-24T04:08:21.030Z,70.17
2017-06-24T04:09:17.262Z,70.18
2017-06-24T04:10:13.518Z,70.27
2017-06-24T04:11:09.762Z,70.25
2017-06-24T04:12:06.005Z,70.24
2017-06-24T04:13:02.262Z,70.35
2017-06-24T04:13:58.498Z,70.29
2017-06-24T04:14:54.755Z,70.41
2017-06-24T04:15:51.002Z,70.34
2017-06-24T04:16:47.257Z,70.51
2017-06-24T04:17:43.514Z,70.41
2017-06-24T04:18:39.754Z,70.49
2017-06-24T04:19:36.006Z,70.49
2017-06-24T04:20:32.266Z,70.42
2017-06-24T04:21:28.518Z,70.41
2017-06-24T04:22:24.770Z,70.39
2017-06-24T04:23:21.021Z,70.47
2017-06-24T04:24:17.273Z,70.42
2017-06-24T04:25:13.523Z,70.54
2017-06-24T04:26:09.862Z,70.58
2017-06-24T04:27:06.159Z,70.58
2017-06-24T04:28:02.450Z,70.59
2017-06-24T04:28:58.742Z,70.58
2017-06-24T04:29:55.042Z,70.71
2017-06-24T04:30:51.286Z,70.75
2017-06-24T04:31:47.570Z,70.72
2017-06-24T04:32:43.814Z,70.66
2017-06-24T04:33:40.066Z,70.77
2017-06-24T04:34:36.315Z,70.71
2017-06-24T04:35:32.631Z,70.80
2017-06-24T04:36:28.930Z,70.94
2017-06-24T04:37:25.195Z,70.81
2017-06-24T04:38:21.446Z,70.85
2017-06-24T04:39:17.706Z,70.79
2017-06-24T04:40:13.965Z,70.76
2017-06-24T04:41:10.227Z,70.76
2017-06-24T04:42:06.505Z,70.84
2017-06-24T04:43:02.746Z,70.69
2017-06-24T04:43:58.998Z,70.61
2017-06-24T04:44:55.242Z,70.51
2017-06-24T04:45:51.489Z,70.47
2017-06-24T04:46:47.734Z,70.49
2017-06-24T04:47:43.990Z,70.38
2017-06-24T04:48:40.230Z,70.42
2017-06-24T04:49:36.478Z,70.36
2017-06-24T04:50:32.723Z,70.30
2017-06-24T04:51:28.966Z,70.27
2017-06-24T04:52:25.223Z,70.18
2017-06-24T04:53:21.484Z,70.18
2017-06-24T04:54:17.742Z,70.13
2017-06-24T04:55:13.981Z,70.12
2017-06-24T04:56:10.225Z,70.09
2017-06-24T04:57:06.474Z,70.13
2017-06-24T04:58:02.718Z,70.28
2017-06-24T04:58:58.982Z,70.17
2017-06-24T04:59:55.230Z,70.15
2017-06-24T05:00:51.478Z,70.24
2017-06-24T05:01:47.730Z,70.41
2017-06-24T05:02:44.897Z,70.61
2017-06-24T05:03:41.181Z,70.60
2017-06-24T05:04:37.433Z,70.56
2017-06-24T05:05:33.687Z,70.56
2017-06-24T05:06:29.972Z,70.45
2017-06-24T05:07:26.230Z,70.40
2017-06-24T05:08:22.527Z,70.18
2017-06-24T05:09:18.802Z,70.05
2017-06-24T05:10:15.063Z,70.08
2017-06-24T05:11:11.314Z,70.01
2017-06-24T05:12:07.554Z,69.88
2017-06-24T05:13:03.798Z,69.83
2017-06-24T05:14:00.055Z,69.67
2017-06-24T05:14:56.518Z,69.52
2017-06-24T05:15:52.770Z,69.39
2017-06-24T05:16:49.015Z,69.26
2017-06-24T05:17:45.290Z,69.13
2017-06-24T05:18:41.554Z,68.99
2017-06-24T05:19:37.818Z,68.83
2017-06-24T05:20:34.070Z,68.77
2017-06-24T05:21:30.327Z,68.62
2017-06-24T05:22:26.610Z,68.52
2017-06-24T05:23:22.884Z,68.45
2017-06-24T05:24:19.146Z,68.35
2017-06-24T05:25:15.402Z,68.36
2017-06-24T05:26:11.646Z,68.25
2017-06-24T05:27:07.896Z,68.07
2017-06-24T05:28:04.170Z,67.95
2017-06-24T05:29:00.419Z,67.81
2017-06-24T05:29:56.690Z,67.77
2017-06-24T05:30:52.954Z,67.66
2017-06-24T05:31:49.204Z,67.62
2017-06-24T05:32:45.454Z,67.57
2017-06-24T05:33:41.694Z,67.53
2017-06-24T05:34:37.974Z,67.52
2017-06-24T05:35:34.248Z,67.38
2017-06-24T05:36:30.582Z,67.39
2017-06-24T05:37:26.843Z,67.29
2017-06-24T05:38:23.098Z,67.23
2017-06-24T05:39:19.351Z,67.11
2017-06-24T05:40:15.611Z,67.01
2017-06-24T05:41:11.878Z,66.97
2017-06-24T05:42:08.149Z,66.97
2017-06-24T05:43:04.410Z,66.89
2017-06-24T05:44:00.695Z,66.85
2017-06-24T05:44:56.941Z,66.84
2017-06-24T05:45:53.201Z,66.76
2017-06-24T05:46:49.470Z,66.71
2017-06-24T05:47:45.742Z,66.71
2017-06-24T05:48:42.030Z,66.73
2017-06-24T05:49:38.274Z,66.69
2017-06-24T05:50:34.565Z,66.53
2017-06-24T05:51:30.849Z,66.36
2017-06-24T05:52:27.101Z,66.27
2017-06-24T05:53:23.355Z,66.17
2017-06-24T05:54:19.621Z,66.13
2017-06-24T05:55:15.870Z,66.07
2017-06-24T05:56:12.142Z,66.02
2017-06-24T05:57:08.402Z,65.97
2017-06-24T05:58:04.650Z,65.94
2017-06-24T05:59:00.917Z,65.91
2017-06-24T05:59:57.210Z,65.73
2017-06-24T06:00:53.479Z,65.58
2017-06-24T06:01:49.750Z,65.27
2017-06-24T06:02:46.022Z,64.92
2017-06-24T06:03:42.278Z,64.48
2017-06-24T06:04:38.533Z,64.07
2017-06-24T06:05:34.807Z,63.94
2017-06-24T06:06:31.050Z,63.73
2017-06-24T06:07:27.309Z,63.42
2017-06-24T06:08:23.570Z,63.15
2017-06-24T06:09:19.846Z,62.81
2017-06-24T06:10:16.109Z,62.73
2017-06-24T06:11:12.350Z,62.62
2017-06-24T06:12:08.589Z,62.47
2017-06-24T06:13:04.874Z,62.42
2017-06-24T06:14:01.125Z,62.18
2017-06-24T06:14:57.390Z,62.09
2017-06-24T06:15:53.640Z,61.92
2017-06-24T06:16:49.902Z,61.60
2017-06-24T06:17:46.150Z,61.27
2017-06-24T06:18:42.417Z,60.80
2017-06-24T06:19:38.677Z,60.71
2017-06-24T06:20:34.945Z,60.31
2017-06-24T06:21:31.194Z,60.17
2017-06-24T06:22:27.460Z,60.22
2017-06-24T06:23:23.726Z,60.29
2017-06-24T06:24:19.974Z,60.18
2017-06-24T06:25:16.227Z,59.79
2017-06-24T06:26:12.470Z,59.16
2017-06-24T06:27:08.730Z,59.28
2017-06-24T06:28:04.998Z,58.93
2017-06-24T06:29:01.270Z,58.61
2017-06-24T06:29:57.538Z,58.56
2017-06-24T06:30:53.796Z,58.51
2017-06-24T06:31:50.050Z,58.33
2017-06-24T06:32:46.298Z,58.15
2017-06-24T06:33:42.742Z,57.71
2017-06-24T06:34:39.008Z,57.64
2017-06-24T06:35:35.254Z,57.58
2017-06-24T06:36:31.493Z,57.61
2017-06-24T06:37:27.738Z,57.78
2017-06-24T06:38:24.006Z,57.74
2017-06-24T06:39:20.267Z,57.58
2017-06-24T06:40:17.143Z,57.19
2017-06-24T06:41:13.382Z,57.19
2017-06-24T06:42:09.646Z,57.13
2017-06-24T06:43:05.895Z,57.08
2017-06-24T06:44:02.142Z,57.29
2017-06-24T06:44:58.413Z,57.41
2017-06-24T06:45:54.670Z,57.44
2017-06-24T06:46:50.936Z,57.49
2017-06-24T06:47:47.211Z,57.52
2017-06-24T06:48:43.454Z,57.41
2017-06-24T06:49:39.718Z,57.23
2017-06-24T06:50:36.006Z,56.72
2017-06-24T06:51:32.266Z,56.77
2017-06-24T06:52:28.510Z,56.72
2017-06-24T06:53:24.866Z,56.60
2017-06-24T06:54:21.167Z,56.31
2017-06-24T06:55:17.462Z,56.18
2017-06-24T06:56:13.706Z,56.01
2017-06-24T06:57:09.953Z,55.92
2017-06-24T06:58:06.194Z,55.87
2017-06-24T06:59:02.443Z,55.79
2017-06-24T06:59:58.832Z,55.79
2017-06-24T07:00:55.080Z,55.74
2017-06-24T07:01:51.342Z,55.69
2017-06-24T07:02:47.599Z,55.68
2017-06-24T07:03:43.844Z,55.48
2017-06-24T07:04:40.266Z,55.42
2017-06-24T07:05:36.637Z,55.13
2017-06-24T07:06:32.910Z,55.24
2017-06-24T07:07:29.338Z,55.30
2017-06-24T07:08:25.577Z,55.52
2017-06-24T07:09:21.826Z,55.68
2017-06-24T07:10:18.274Z,55.83
2017-06-24T07:11:14.556Z,55.76
2017-06-24T07:12:10.872Z,55.42
2017-06-24T07:13:08.053Z,55.22
2017-06-24T07:14:04.294Z,55.34
2017-06-24T07:15:00.984Z,55.36
2017-06-24T07:15:57.633Z,55.22
2017-06-24T07:16:53.910Z,55.17
2017-06-24T07:17:50.190Z,55.00
2017-06-24T07:18:46.437Z,55.05
2017-06-24T07:19:42.731Z,55.07
2017-06-24T07:20:39.026Z,55.01
2017-06-24T07:21:35.274Z,54.77
2017-06-24T07:22:31.534Z,54.73
2017-06-24T07:23:27.775Z,54.54
2017-06-24T07:24:24.026Z,54.33
2017-06-24T07:25:20.274Z,54.16
2017-06-24T07:26:16.928Z,53.62
2017-06-24T07:27:13.195Z,53.63
2017-06-24T07:28:09.457Z,53.43
2017-06-24T07:29:05.710Z,53.50
2017-06-24T07:30:02.378Z,53.75
2017-06-24T07:30:59.182Z,54.05
2017-06-24T07:31:55.527Z,53.63
2017-06-24T07:32:51.786Z,53.50
2017-06-24T07:33:48.070Z,53.34
2017-06-24T07:34:44.325Z,53.42
2017-06-24T07:35:40.582Z,53.41
2017-06-24T07:36:36.864Z,53.32
2017-06-24T07:37:33.241Z,53.21
2017-06-24T07:38:29.494Z,52.86
2017-06-24T07:39:25.758Z,52.71
2017-06-24T07:40:22.008Z,52.50
2017-06-24T07:41:18.254Z,52.53
2017-06-24T07:42:14.498Z,52.66
2017-06-24T07:43:10.801Z,52.67
2017-06-24T07:44:07.071Z,52.76
2017-06-24T07:45:03.326Z,52.72
2017-06-24T07:45:59.842Z,52.64
2017-06-24T07:46:59.238Z,52.74
2017-06-24T07:47:57.246Z,52.68
2017-06-24T07:48:53.566Z,52.66
2017-06-24T07:49:49.894Z,52.84
2017-06-24T07:50:51.123Z,52.85
2017-06-24T07:51:47.443Z,52.89
2017-06-24T07:52:43.694Z,52.83
2017-06-24T07:53:39.978Z,52.49
2017-06-24T07:54:36.254Z,52.47
2017-06-24T07:55:32.494Z,52.59
2017-06-24T07:56:28.754Z,52.61
2017-06-24T07:57:24.993Z,52.42
2017-06-24T07:58:21.250Z,52.50
2017-06-24T07:59:17.490Z,52.56
2017-06-24T08:00:13.814Z,52.65
2017-06-24T08:01:10.058Z,53.11
2017-06-24T08:02:06.303Z,52.79
2017-06-24T08:03:02.546Z,52.82
2017-06-24T08:03:58.793Z,52.88
2017-06-24T08:04:55.170Z,52.93
2017-06-24T08:05:51.422Z,52.64
2017-06-24T08:06:47.674Z,52.66
2017-06-24T08:07:44.011Z,52.53
2017-06-24T08:08:40.246Z,52.24
2017-06-24T08:09:36.486Z,52.38
2017-06-24T08:10:33.014Z,52.54
2017-06-24T08:11:29.453Z,52.52
2017-06-24T08:12:26.032Z,52.69
2017-06-24T08:13:22.646Z,52.67
2017-06-24T08:14:18.890Z,52.67
2017-06-24T08:15:15.582Z,52.94
2017-06-24T08:16:12.286Z,52.70
2017-06-24T08:17:08.526Z,52.74
2017-06-24T08:18:04.803Z,52.77
2017-06-24T08:19:01.099Z,52.59
2017-06-24T08:19:57.354Z,52.63
2017-06-24T08:20:53.606Z,52.75
2017-06-24T08:21:50.326Z,52.83
2017-06-24T08:22:46.578Z,52.86
2017-06-24T08:23:42.815Z,52.73
2017-06-24T08:24:39.268Z,52.43
2017-06-24T08:25:35.502Z,52.36
2017-06-24T08:26:32.505Z,52.32
2017-06-24T08:27:28.914Z,52.09
2017-06-24T08:28:25.153Z,52.15
2017-06-24T08:29:21.407Z,52.30
2017-06-24T08:30:17.647Z,52.41
2017-06-24T08:31:13.904Z,52.33
2017-06-24T08:32:10.148Z,52.26
2017-06-24T08:33:06.402Z,52.29
2017-06-24T08:34:02.641Z,52.27
2017-06-24T08:34:59.143Z,52.25
2017-06-24T08:35:55.594Z,52.20
2017-06-24T08:36:51.834Z,51.97
2017-06-24T08:37:48.074Z,52.04
2017-06-24T08:38:44.334Z,52.00
2017-06-24T08:39:40.585Z,52.08
2017-06-24T08:40:36.826Z,52.03
2017-06-24T08:41:33.066Z,51.91
2017-06-24T08:42:29.321Z,51.79
2017-06-24T08:43:25.595Z,51.67
2017-06-24T08:44:22.314Z,51.55
2017-06-24T08:45:18.569Z,51.41
2017-06-24T08:46:14.808Z,51.30
2017-06-24T08:47:11.060Z,51.27
2017-06-24T08:48:07.310Z,51.26
2017-06-24T08:49:03.566Z,51.50
2017-06-24T08:49:59.805Z,52.01
2017-06-24T08:50:56.074Z,52.27
2017-06-24T08:51:52.317Z,52.24
2017-06-24T08:52:48.578Z,52.29
2017-06-24T08:53:44.981Z,52.73
2017-06-24T08:54:41.246Z,52.47
2017-06-24T08:55:37.486Z,52.44
2017-06-24T08:56:33.730Z,52.64
2017-06-24T08:57:29.971Z,53.14
2017-06-24T08:58:26.269Z,53.07
2017-06-24T08:59:22.513Z,53.02
2017-06-24T09:00:18.786Z,52.61
2017-06-24T09:01:15.102Z,52.63
2017-06-24T09:02:11.342Z,52.86
2017-06-24T09:03:07.586Z,53.02
2017-06-24T09:04:03.830Z,52.92
2017-06-24T09:05:00.090Z,53.09
2017-06-24T09:05:56.346Z,52.67
2017-06-24T09:06:52.593Z,52.32
2017-06-24T09:07:48.846Z,51.97
2017-06-24T09:08:45.153Z,52.30
2017-06-24T09:09:41.427Z,52.11
2017-06-24T09:10:37.890Z,51.94
2017-06-24T09:11:34.139Z,51.40
2017-06-24T09:12:30.386Z,51.38
2017-06-24T09:13:26.630Z,51.34
2017-06-24T09:14:22.873Z,51.30
2017-06-24T09:15:19.198Z,51.31
2017-06-24T09:16:15.458Z,50.97
2017-06-24T09:17:11.820Z,51.20
2017-06-24T09:18:08.153Z,51.10
2017-06-24T09:19:04.398Z,51.31
2017-06-24T09:20:00.849Z,51.35
2017-06-24T09:20:57.362Z,51.07
2017-06-24T09:21:53.606Z,50.95
2017-06-24T09:22:49.978Z,50.95
2017-06-24T09:23:46.365Z,50.58
2017-06-24T09:24:42.829Z,50.20
2017-06-24T09:25:39.080Z,49.98
2017-06-24T09:26:35.590Z,49.85
2017-06-24T09:27:31.842Z,49.11
2017-06-24T09:28:28.146Z,48.91
2017-06-24T09:29:24.465Z,48.42
2017-06-24T09:30:20.968Z,47.48
2017-06-24T09:31:17.210Z,47.23
2017-06-24T09:32:13.475Z,47.09
2017-06-24T09:33:09.714Z,47.49
2017-06-24T09:34:06.177Z,47.20
2017-06-24T09:35:02.555Z,46.44
2017-06-24T09:35:58.982Z,46.69
2017-06-24T09:36:55.458Z,46.54
2017-06-24T09:37:52.060Z,46.33
2017-06-24T09:38:48.626Z,46.23
2017-06-24T09:39:45.026Z,46.30
2017-06-24T09:40:41.270Z,46.03
2017-06-24T09:41:37.599Z,45.78
2017-06-24T09:42:33.849Z,45.89
2017-06-24T09:43:30.223Z,45.60
2017-06-24T09:44:26.477Z,45.25
2017-06-24T09:45:22.748Z,44.51
2017-06-24T09:46:19.191Z,44.35
2017-06-24T09:47:15.494Z,44.38
2017-06-24T09:48:11.726Z,44.21
2017-06-24T09:49:08.101Z,43.99
2017-06-24T09:50:04.615Z,43.41
2017-06-24T09:51:01.116Z,42.83
2017-06-24T09:51:57.544Z,42.44
2017-06-24T09:52:53.962Z,42.38
2017-06-24T09:53:50.220Z,42.70
2017-06-24T09:54:46.669Z,42.90
2017-06-24T09:55:42.964Z,42.75
2017-06-24T09:56:39.216Z,42.59
2017-06-24T09:57:35.844Z,42.54
2017-06-24T09:58:32.302Z,42.46
2017-06-24T09:59:28.924Z,42.22
2017-06-24T10:00:25.473Z,42.07
2017-06-24T10:01:21.726Z,42.00
2017-06-24T10:02:17.986Z,41.76
2017-06-24T10:03:14.246Z,41.30
2017-06-24T10:04:10.498Z,41.17
2017-06-24T10:05:06.742Z,40.88
2017-06-24T10:06:03.001Z,40.57
2017-06-24T10:06:59.354Z,40.51
2017-06-24T10:07:55.598Z,40.69
2017-06-24T10:08:51.838Z,40.74
2017-06-24T10:09:48.099Z,40.64
2017-06-24T10:10:44.375Z,40.34
2017-06-24T10:11:40.646Z,40.39
2017-06-24T10:12:36.889Z,40.16
2017-06-24T10:13:33.157Z,39.89
2017-06-24T10:14:29.410Z,39.93
2017-06-24T10:15:25.665Z,39.84
2017-06-24T10:16:21.926Z,39.62
2017-06-24T10:17:18.163Z,39.13
2017-06-24T10:18:14.410Z,38.28
2017-06-24T10:19:10.658Z,38.46
2017-06-24T10:20:06.913Z,38.80
2017-06-24T10:21:03.150Z,38.64
2017-06-24T10:21:59.401Z,38.70
2017-06-24T10:22:55.666Z,38.78
2017-06-24T10:23:51.978Z,38.56
2017-06-24T10:24:48.226Z,38.34
2017-06-24T10:25:44.454Z,38.05
2017-06-24T10:26:40.746Z,37.72
2017-06-24T10:27:37.046Z,37.51
2017-06-24T10:28:33.289Z,37.54
2017-06-24T10:29:29.555Z,37.11
2017-06-24T10:30:25.847Z,36.83
2017-06-24T10:31:22.095Z,36.46
2017-06-24T10:32:18.343Z,36.46
2017-06-24T10:33:14.627Z,36.39
2017-06-24T10:34:10.884Z,36.39
2017-06-24T10:35:07.191Z,36.47
2017-06-24T10:36:03.443Z,36.59
2017-06-24T10:36:59.698Z,36.31
2017-06-24T10:37:55.982Z,36.34
2017-06-24T10:38:52.238Z,36.62
2017-06-24T10:39:48.498Z,36.80
2017-06-24T10:40:44.735Z,36.51
2017-06-24T10:41:40.990Z,36.52
2017-06-24T10:42:37.251Z,36.40
2017-06-24T10:43:33.530Z,36.43
2017-06-24T10:44:29.774Z,36.40
2017-06-24T10:45:26.023Z,36.59
2017-06-24T10:46:22.275Z,36.58
2017-06-24T10:47:18.515Z,36.74
2017-06-24T10:48:14.754Z,36.74
2017-06-24T10:49:11.019Z,36.45
2017-06-24T10:50:07.267Z,36.20
2017-06-24T10:51:03.514Z,36.16
2017-06-24T10:51:59.759Z,35.97
2017-06-24T10:52:56.022Z,36.22
2017-06-24T10:53:52.298Z,36.43
2017-06-24T10:54:48.563Z,36.48
2017-06-24T10:55:44.806Z,36.43
2017-06-24T10:56:41.070Z,36.62
2017-06-24T10:57:37.316Z,36.54
2017-06-24T10:58:33.587Z,36.44
2017-06-24T10:59:29.918Z,36.26
2017-06-24T11:00:26.174Z,36.14
2017-06-24T11:01:22.426Z,35.86
2017-06-24T11:02:18.684Z,35.72
2017-06-24T11:03:14.934Z,35.79
2017-06-24T11:04:11.195Z,35.77
2017-06-24T11:05:07.482Z,35.80
2017-06-24T11:06:03.741Z,35.75
2017-06-24T11:06:59.998Z,35.61
2017-06-24T11:07:56.258Z,35.38
2017-06-24T11:08:52.510Z,35.24
2017-06-24T11:09:48.767Z,35.30
2017-06-24T11:10:45.026Z,35.45
2017-06-24T11:11:41.271Z,35.51
2017-06-24T11:12:37.515Z,35.55
2017-06-24T11:13:33.770Z,35.33
2017-06-24T11:14:30.023Z,34.91
2017-06-24T11:15:26.306Z,34.65
2017-06-24T11:16:22.566Z,34.56
2017-06-24T11:17:18.838Z,34.77
2017-06-24T11:18:15.118Z,34.52
2017-06-24T11:19:11.378Z,34.87
2017-06-24T11:20:07.623Z,35.01
2017-06-24T11:21:03.920Z,34.99
2017-06-24T11:22:00.183Z,34.68
2017-06-24T11:22:56.427Z,34.65
2017-06-24T11:23:52.670Z,34.62
2017-06-24T11:24:48.930Z,34.73
2017-06-24T11:25:45.195Z,34.90
2017-06-24T11:26:41.454Z,34.94
2017-06-24T11:27:37.718Z,35.16
2017-06-24T11:28:33.971Z,35.25
2017-06-24T11:29:30.230Z,35.29
2017-06-24T11:30:26.507Z,35.03
2017-06-24T11:31:22.748Z,34.72
2017-06-24T11:32:19.020Z,34.73
2017-06-24T11:33:15.284Z,34.55
2017-06-24T11:34:11.542Z,34.99
2017-06-24T11:35:07.819Z,34.89
2017-06-24T11:36:04.091Z,34.48
2017-06-24T11:37:00.366Z,34.29
2017-06-24T11:37:56.630Z,34.01
2017-06-24T11:38:52.890Z,34.10
2017-06-24T11:39:49.173Z,33.94
2017-06-24T11:40:45.427Z,33.99
2017-06-24T11:41:41.670Z,34.03
2017-06-24T11:42:37.934Z,34.12
2017-06-24T11:43:34.196Z,34.25
2017-06-24T11:44:30.446Z,34.44
2017-06-24T11:45:26.707Z,34.57
2017-06-24T11:46:22.962Z,34.29
2017-06-24T11:47:19.259Z,34.02
2017-06-24T11:48:15.529Z,33.99
2017-06-24T11:49:11.806Z,33.81
2017-06-24T11:50:08.090Z,33.98
2017-06-24T11:51:04.339Z,34.19
2017-06-24T11:52:00.599Z,34.25
2017-06-24T11:52:56.882Z,34.14
2017-06-24T11:53:53.149Z,34.25
2017-06-24T11:54:49.415Z,34.15
2017-06-24T11:55:45.675Z,34.12
2017-06-24T11:56:41.943Z,34.10
2017-06-24T11:57:38.198Z,33.92
2017-06-24T11:58:34.470Z,33.88
2017-06-24T11:59:30.730Z,33.80
2017-06-24T12:00:26.970Z,34.02
2017-06-24T12:01:23.242Z,34.13
2017-06-24T12:02:19.501Z,33.98
2017-06-24T12:03:15.774Z,33.82
2017-06-24T12:04:12.036Z,33.89
2017-06-24T12:05:08.295Z,33.95